createdAt,value
2018-10-16T00:02:09.373Z,19.17
2018-10-16T00:04:36.606Z,18.97
2018-10-16T00:07:03.932Z,19.50
2018-10-16T00:09:31.085Z,18.20
2018-10-16T00:12:01.485Z,18.23
2018-10-16T00:14:29.384Z,18.63
2018-10-16T00:16:56.546Z,18.70
2018-10-16T00:19:23.914Z,19.40
2018-10-16T00:21:51.108Z,19.10
2018-10-16T00:24:18.411Z,18.47
2018-10-16T00:26:45.689Z,20.10
2018-10-16T00:29:13.178Z,18.53
2018-10-16T00:31:40.417Z,18.93
2018-10-16T00:34:08.261Z,18.13
2018-10-16T00:36:36.339Z,18.33
2018-10-16T00:39:04.365Z,19.27
2018-10-16T00:41:31.600Z,19.93
2018-10-16T00:43:58.899Z,20.43
2018-10-16T00:46:26.117Z,18.63
2018-10-16T00:48:53.280Z,18.63
2018-10-16T00:51:20.741Z,18.73
2018-10-16T00:53:47.877Z,18.93
2018-10-16T00:56:15.020Z,19.77
2018-10-16T00:58:42.431Z,18.43
2018-10-16T01:01:09.605Z,18.80
2018-10-16T01:03:36.755Z,17.70
2018-10-16T01:06:04.049Z,18.53
2018-10-16T01:08:31.466Z,19.77
2018-10-16T01:10:58.627Z,18.50
2018-10-16T01:13:26.356Z,18.70
2018-10-16T01:15:53.572Z,19.73
2018-10-16T01:18:20.728Z,19.70
2018-10-16T01:20:48.181Z,19.00
2018-10-16T01:23:15.350Z,18.40
2018-10-16T01:25:42.492Z,19.43
2018-10-16T01:28:09.641Z,19.07
2018-10-16T01:30:36.833Z,19.90
2018-10-16T01:33:04.128Z,18.50
2018-10-16T01:35:31.291Z,19.07
2018-10-16T01:37:58.447Z,19.57
2018-10-16T01:40:25.587Z,19.00
2018-10-16T01:42:53.102Z,19.40
2018-10-16T01:45:20.242Z,19.60
2018-10-16T01:47:47.438Z,20.90
2018-10-16T01:50:14.680Z,18.60
2018-10-16T01:52:41.864Z,20.20
2018-10-16T01:55:09.103Z,18.83
2018-10-16T01:57:36.427Z,19.60
2018-10-16T02:00:03.684Z,20.10
2018-10-16T02:02:30.887Z,19.13
2018-10-16T02:04:58.051Z,20.00
2018-10-16T02:07:25.216Z,19.10
2018-10-16T02:09:52.378Z,20.10
2018-10-16T02:12:19.547Z,18.70
2018-10-16T02:14:46.732Z,18.63
2018-10-16T02:17:14.256Z,17.37
2018-10-16T02:19:41.636Z,18.73
2018-10-16T02:22:08.788Z,19.03
2018-10-16T02:24:35.971Z,19.07
2018-10-16T02:27:03.403Z,17.60
2018-10-16T02:29:30.560Z,18.90
2018-10-16T02:31:57.715Z,18.90
2018-10-16T02:34:24.926Z,18.13
2018-10-16T02:36:52.081Z,18.40
2018-10-16T02:39:19.333Z,18.13
2018-10-16T02:41:46.527Z,18.53
2018-10-16T02:44:13.706Z,17.10
2018-10-16T02:46:40.912Z,18.23
2018-10-16T02:49:08.495Z,18.80
2018-10-16T02:51:35.900Z,17.63
2018-10-16T02:54:03.055Z,18.80
2018-10-16T02:56:30.221Z,18.47
2018-10-16T02:58:57.367Z,18.10
2018-10-16T03:01:24.515Z,16.83
2018-10-16T03:03:51.944Z,16.30
2018-10-16T03:06:19.186Z,17.03
2018-10-16T03:08:46.373Z,17.10
2018-10-16T03:11:13.559Z,16.33
2018-10-16T03:13:40.700Z,17.50
2018-10-16T03:16:07.869Z,16.73
2018-10-16T03:18:35.287Z,17.40
2018-10-16T03:21:02.441Z,17.97
2018-10-16T03:23:29.596Z,16.70
2018-10-16T03:25:56.760Z,18.03
2018-10-16T03:28:23.962Z,18.53
2018-10-16T03:30:51.123Z,18.10
2018-10-16T03:33:18.569Z,17.27
2018-10-16T03:35:45.715Z,17.70
2018-10-16T03:38:13.075Z,18.53
2018-10-16T03:40:40.500Z,18.07
2018-10-16T03:43:07.648Z,16.30
2018-10-16T03:45:34.804Z,17.87
2018-10-16T03:48:02.231Z,17.10
2018-10-16T03:50:29.492Z,18.50
2018-10-16T03:52:56.630Z,17.83
2018-10-16T03:55:23.784Z,18.40
2018-10-16T03:57:50.941Z,19.07
2018-10-16T04:00:18.099Z,17.57
2018-10-16T04:02:45.655Z,19.30
2018-10-16T04:05:12.800Z,19.60
2018-10-16T04:07:39.895Z,19.70
2018-10-16T04:10:07.592Z,18.57
2018-10-16T04:12:34.732Z,20.07
2018-10-16T04:15:01.785Z,20.00
2018-10-16T04:17:28.811Z,19.80
2018-10-16T04:19:55.903Z,18.73
2018-10-16T04:22:22.946Z,19.47
2018-10-16T04:24:50.020Z,19.17
2018-10-16T04:27:17.047Z,19.23
2018-10-16T04:29:44.068Z,18.70
2018-10-16T04:32:11.141Z,19.27
2018-10-16T04:34:38.160Z,19.00
2018-10-16T04:37:05.175Z,18.90
2018-10-16T04:39:32.672Z,18.83
2018-10-16T04:41:59.703Z,18.27
2018-10-16T04:44:26.728Z,18.00
2018-10-16T04:46:53.755Z,18.63
2018-10-16T04:49:20.868Z,18.97
2018-10-16T04:51:47.936Z,18.20
2018-10-16T04:54:14.964Z,19.30
2018-10-16T04:56:41.984Z,18.97
2018-10-16T04:59:09.015Z,18.33
2018-10-16T05:01:36.351Z,18.00
2018-10-16T05:04:03.573Z,18.40
2018-10-16T05:06:30.652Z,18.60
2018-10-16T05:08:57.939Z,18.30
2018-10-16T05:11:24.971Z,17.37
2018-10-16T05:13:52.020Z,19.40
2018-10-16T05:16:19.390Z,17.70
2018-10-16T05:18:46.415Z,18.07
2018-10-16T05:21:13.445Z,18.67
2018-10-16T05:23:40.532Z,19.87
2018-10-16T05:26:07.675Z,18.70
2018-10-16T05:28:34.678Z,16.50
2018-10-16T05:31:01.797Z,19.40
2018-10-16T05:33:28.831Z,19.50
2018-10-16T05:35:55.859Z,18.60
2018-10-16T05:38:22.911Z,18.73
2018-10-16T05:40:49.935Z,20.40
2018-10-16T05:43:16.960Z,20.00
2018-10-16T05:45:45.155Z,20.80
2018-10-16T05:48:12.176Z,19.80
2018-10-16T05:50:39.275Z,22.07
2018-10-16T05:53:06.640Z,19.40
2018-10-16T05:55:33.666Z,20.07
2018-10-16T05:58:00.868Z,19.07
2018-10-16T06:00:39.588Z,19.20
2018-10-16T06:03:06.876Z,20.17
2018-10-16T06:05:34.039Z,20.07
2018-10-16T06:08:01.104Z,19.40
2018-10-16T06:10:28.152Z,18.90
2018-10-16T06:12:55.171Z,21.10
2018-10-16T06:15:22.569Z,20.90
2018-10-16T06:17:49.660Z,20.73
2018-10-16T06:20:16.693Z,20.00
2018-10-16T06:22:43.755Z,19.77
2018-10-16T06:25:10.989Z,20.20
2018-10-16T06:27:38.958Z,24.87
2018-10-16T06:30:06.603Z,20.53
2018-10-16T06:32:33.648Z,20.13
2018-10-16T06:35:01.020Z,20.23
2018-10-16T06:37:28.380Z,20.27
2018-10-16T06:39:55.404Z,23.13
2018-10-16T06:42:22.767Z,21.20
2018-10-16T06:44:50.066Z,21.93
2018-10-16T06:47:17.130Z,22.70
2018-10-16T06:49:44.172Z,23.30
2018-10-16T06:52:11.559Z,22.80
2018-10-16T06:54:38.635Z,22.37
2018-10-16T06:57:05.631Z,22.23
2018-10-16T06:59:33.360Z,23.70
2018-10-16T07:02:00.410Z,43.83
2018-10-16T07:04:27.502Z,73.50
2018-10-16T07:06:54.933Z,51.30
2018-10-16T07:09:22.333Z,49.10
2018-10-16T07:11:49.355Z,35.17
2018-10-16T07:14:16.736Z,30.03
2018-10-16T07:16:43.771Z,22.00
2018-10-16T07:19:10.835Z,38.40
2018-10-16T07:21:38.182Z,38.30
2018-10-16T07:24:05.557Z,23.37
2018-10-16T07:26:32.631Z,22.23
2018-10-16T07:28:59.947Z,22.80
2018-10-16T07:31:27.004Z,21.47
2018-10-16T07:33:54.044Z,22.10
2018-10-16T07:36:21.397Z,21.80
2018-10-16T07:38:48.575Z,23.37
2018-10-16T07:41:15.609Z,24.40
2018-10-16T07:43:42.648Z,25.77
2018-10-16T07:46:09.676Z,22.97
2018-10-16T07:48:36.774Z,23.57
2018-10-16T07:51:04.297Z,28.20
2018-10-16T07:53:31.351Z,26.67
2018-10-16T07:55:58.384Z,26.43
2018-10-16T07:58:25.767Z,25.17
2018-10-16T08:00:52.806Z,24.33
2018-10-16T08:03:19.843Z,23.73
2018-10-16T08:05:46.889Z,22.30
2018-10-16T08:08:13.921Z,22.00
2018-10-16T08:10:40.947Z,23.60
2018-10-16T08:13:07.995Z,23.67
2018-10-16T08:15:35.048Z,20.70
2018-10-16T08:18:02.120Z,22.57
2018-10-16T08:20:29.290Z,21.80
2018-10-16T08:22:56.324Z,20.60
2018-10-16T08:25:23.444Z,22.70
2018-10-16T08:27:50.515Z,21.87
2018-10-16T08:30:17.566Z,23.10
2018-10-16T08:32:44.680Z,22.47
2018-10-16T08:35:11.988Z,22.47
2018-10-16T08:39:49.388Z,22.43
2018-10-16T08:43:25.056Z,21.87
2018-10-16T08:45:57.908Z,22.03
2018-10-16T08:48:31.027Z,23.07
2018-10-16T08:51:03.818Z,24.00
2018-10-16T08:53:30.911Z,22.93
2018-10-16T08:55:57.968Z,22.60
2018-10-16T08:58:25.095Z,23.67
2018-10-16T09:00:53.964Z,23.80
2018-10-16T09:03:21.173Z,21.57
2018-10-16T09:05:48.203Z,20.40
2018-10-16T09:08:15.484Z,21.03
2018-10-16T09:10:42.524Z,20.77
2018-10-16T09:13:09.721Z,22.97
2018-10-16T09:15:37.131Z,26.43
2018-10-16T09:18:04.204Z,22.60
2018-10-16T09:20:31.233Z,19.13
2018-10-16T09:22:58.287Z,19.27
2018-10-16T09:25:25.324Z,20.83
2018-10-16T09:27:52.362Z,18.63
2018-10-16T09:30:19.421Z,20.13
2018-10-16T09:32:46.480Z,20.37
2018-10-16T09:35:13.531Z,17.33
2018-10-16T09:37:40.905Z,19.10
2018-10-16T09:40:09.506Z,18.00
2018-10-16T09:42:36.768Z,22.17
2018-10-16T09:45:03.970Z,23.63
2018-10-16T09:47:31.012Z,16.70
2018-10-16T09:49:58.048Z,21.00
2018-10-16T09:52:25.204Z,17.67
2018-10-16T09:54:52.248Z,17.60
2018-10-16T09:57:19.299Z,20.87
2018-10-16T09:59:46.383Z,15.90
2018-10-16T10:02:13.412Z,16.43
2018-10-16T10:04:40.673Z,16.33
2018-10-16T10:07:07.705Z,14.60
2018-10-16T10:09:34.784Z,18.13
2018-10-16T10:12:01.883Z,16.77
2018-10-16T10:14:28.966Z,16.00
2018-10-16T10:16:56.043Z,15.40
2018-10-16T10:19:23.089Z,15.33
2018-10-16T10:21:50.496Z,15.37
2018-10-16T10:24:17.544Z,15.53
2018-10-16T10:26:44.567Z,15.93
2018-10-16T10:29:11.868Z,13.93
2018-10-16T10:31:38.895Z,15.73
2018-10-16T10:34:05.939Z,14.80
2018-10-16T10:36:33.144Z,13.90
2018-10-16T10:39:00.174Z,18.90
2018-10-16T10:41:28.233Z,15.30
2018-10-16T10:43:55.355Z,14.67
2018-10-16T10:46:22.388Z,18.90
2018-10-16T10:48:49.556Z,15.53
2018-10-16T10:51:17.063Z,15.60
2018-10-16T10:53:43.668Z,14.67
2018-10-16T10:56:10.803Z,15.30
2018-10-16T10:58:38.094Z,17.13
2018-10-16T11:01:05.212Z,16.00
2018-10-16T11:03:32.387Z,15.83
2018-10-16T11:05:59.336Z,15.40
2018-10-16T11:08:26.367Z,16.63
2018-10-16T11:10:53.392Z,16.30
2018-10-16T11:13:20.554Z,16.80
2018-10-16T11:15:47.580Z,16.47
2018-10-16T11:18:14.712Z,14.63
2018-10-16T11:20:41.774Z,16.23
2018-10-16T11:23:08.812Z,14.37
2018-10-16T11:25:35.839Z,13.60
2018-10-16T11:28:03.676Z,14.63
2018-10-16T11:30:30.732Z,14.33
2018-10-16T11:32:57.765Z,13.60
2018-10-16T11:35:24.829Z,13.53
2018-10-16T11:37:51.868Z,13.17
2018-10-16T11:40:19.024Z,14.67
2018-10-16T11:42:46.419Z,12.87
2018-10-16T11:45:13.496Z,14.20
2018-10-16T11:47:40.512Z,16.13
2018-10-16T11:50:08.649Z,16.73
2018-10-16T11:52:35.640Z,13.57
2018-10-16T11:55:02.690Z,13.40
2018-10-16T11:57:29.772Z,15.20
2018-10-16T11:59:56.801Z,14.00
2018-10-16T12:02:23.907Z,14.50
2018-10-16T12:04:51.143Z,15.53
2018-10-16T12:07:18.483Z,14.00
2018-10-16T12:09:45.612Z,15.33
2018-10-16T12:12:13.175Z,14.97
2018-10-16T12:14:40.311Z,14.87
2018-10-16T12:17:14.643Z,13.23
2018-10-16T12:19:45.155Z,15.17
2018-10-16T12:22:12.183Z,13.97
2018-10-16T12:24:39.256Z,13.90
2018-10-16T12:27:06.392Z,14.87
2018-10-16T12:29:33.371Z,13.93
2018-10-16T12:32:00.515Z,15.47
2018-10-16T12:34:27.531Z,14.70
2018-10-16T12:36:55.239Z,15.50
2018-10-16T12:39:22.278Z,15.60
2018-10-16T12:41:49.303Z,12.70
2018-10-16T12:44:16.471Z,14.00
2018-10-16T12:46:43.727Z,14.60
2018-10-16T12:49:10.776Z,14.17
2018-10-16T12:51:37.898Z,14.60
2018-10-16T12:54:05.354Z,15.43
2018-10-16T12:56:32.409Z,14.30
2018-10-16T12:58:59.479Z,15.43
2018-10-16T13:01:26.521Z,13.10
2018-10-16T13:03:53.558Z,13.30
2018-10-16T13:06:20.582Z,13.70
2018-10-16T13:08:47.984Z,13.30
2018-10-16T13:11:15.062Z,14.00
2018-10-16T13:13:42.074Z,13.60
2018-10-16T13:16:09.217Z,13.50
2018-10-16T13:18:36.180Z,13.50
2018-10-16T13:21:03.212Z,14.20
2018-10-16T13:23:30.359Z,14.40
2018-10-16T13:25:57.439Z,15.60
2018-10-16T13:28:24.432Z,14.20
2018-10-16T13:30:51.488Z,12.77
2018-10-16T13:33:18.535Z,13.90
2018-10-16T13:35:45.580Z,15.50
2018-10-16T13:38:13.057Z,13.87
2018-10-16T13:40:40.032Z,14.70
2018-10-16T13:43:07.152Z,14.60
2018-10-16T13:45:34.352Z,15.73
2018-10-16T13:48:01.377Z,14.93
2018-10-16T13:50:28.418Z,16.77
2018-10-16T13:52:55.487Z,13.77
2018-10-16T13:55:22.604Z,14.40
2018-10-16T13:57:49.632Z,14.03
2018-10-16T14:00:18.472Z,13.70
2018-10-16T14:02:46.653Z,13.13
2018-10-16T14:05:13.795Z,12.60
2018-10-16T14:07:41.152Z,13.00
2018-10-16T14:10:08.632Z,13.47
2018-10-16T14:12:36.096Z,13.27
2018-10-16T14:15:04.004Z,12.43
2018-10-16T14:17:31.112Z,14.90
2018-10-16T14:19:58.279Z,15.50
2018-10-16T14:22:25.332Z,17.37
2018-10-16T14:24:52.361Z,14.20
2018-10-16T14:27:19.388Z,14.57
2018-10-16T14:29:46.418Z,15.50
2018-10-16T14:32:13.547Z,14.10
2018-10-16T14:34:40.620Z,12.90
2018-10-16T14:37:08.045Z,14.40
2018-10-16T14:39:35.069Z,14.90
2018-10-16T14:42:02.096Z,16.47
2018-10-16T14:44:29.132Z,15.03
2018-10-16T14:46:56.152Z,15.90
2018-10-16T14:49:23.171Z,15.57
2018-10-16T14:51:50.293Z,15.27
2018-10-16T14:54:17.375Z,15.10
2018-10-16T14:56:44.402Z,14.60
2018-10-16T14:59:11.718Z,14.67
2018-10-16T15:01:38.787Z,13.53
2018-10-16T15:04:05.918Z,15.67
2018-10-16T15:06:33.240Z,15.30
2018-10-16T15:09:00.252Z,14.60
2018-10-16T15:11:27.267Z,14.63
2018-10-16T15:13:54.344Z,16.50
2018-10-16T15:16:21.379Z,15.67
2018-10-16T15:18:48.385Z,17.60
2018-10-16T15:21:15.724Z,16.60
2018-10-16T15:23:42.793Z,19.30
2018-10-16T15:26:09.884Z,17.90
2018-10-16T15:28:37.180Z,17.43
2018-10-16T15:31:04.283Z,16.63
2018-10-16T15:33:31.303Z,16.60
2018-10-16T15:35:58.727Z,16.70
2018-10-16T15:38:25.828Z,17.37
2018-10-16T15:40:52.880Z,18.70
2018-10-16T15:43:20.189Z,20.53
2018-10-16T15:45:47.215Z,25.13
2018-10-16T15:48:14.386Z,23.07
2018-10-16T15:50:41.654Z,22.20
2018-10-16T15:53:08.674Z,23.27
2018-10-16T15:55:35.692Z,20.30
2018-10-16T15:58:02.754Z,17.57
2018-10-16T16:00:29.902Z,19.30
2018-10-16T16:02:56.948Z,20.57
2018-10-16T16:05:24.335Z,19.70
2018-10-16T16:07:51.375Z,19.33
2018-10-16T16:10:18.489Z,25.67
2018-10-16T16:12:45.596Z,22.30
2018-10-16T16:15:13.273Z,24.80
2018-10-16T16:17:40.500Z,24.00
2018-10-16T16:20:08.620Z,23.13
2018-10-16T16:22:35.934Z,24.70
2018-10-16T16:25:03.380Z,22.00
2018-10-16T16:27:30.748Z,22.43
2018-10-16T16:29:57.877Z,24.67
2018-10-16T16:32:24.996Z,24.10
2018-10-16T16:34:52.065Z,21.60
2018-10-16T16:37:19.076Z,23.60
2018-10-16T16:39:46.411Z,24.40
2018-10-16T16:42:13.761Z,22.70
2018-10-16T16:44:40.723Z,27.97
2018-10-16T16:47:07.910Z,28.70
2018-10-16T16:49:35.797Z,27.60
2018-10-16T16:52:02.907Z,27.77
2018-10-16T16:54:29.904Z,30.27
2018-10-16T16:56:57.352Z,27.73
2018-10-16T16:59:24.472Z,28.90
2018-10-16T17:01:51.501Z,27.83
2018-10-16T17:04:18.807Z,29.13
2018-10-16T17:06:45.915Z,31.23
2018-10-16T17:09:12.932Z,37.07
2018-10-16T17:11:39.976Z,37.13
2018-10-16T17:14:07.450Z,37.10
2018-10-16T17:16:34.574Z,38.10
2018-10-16T17:19:02.660Z,35.90
2018-10-16T17:21:29.779Z,36.33
2018-10-16T17:23:56.895Z,33.47
2018-10-16T17:26:24.636Z,34.50
2018-10-16T17:28:51.465Z,35.40
2018-10-16T17:31:18.585Z,31.40
2018-10-16T17:33:45.629Z,31.90
2018-10-16T17:36:12.847Z,32.90
2018-10-16T17:38:40.940Z,30.80
2018-10-16T17:41:08.255Z,33.73
2018-10-16T17:43:35.283Z,31.10
2018-10-16T17:46:02.329Z,31.80
2018-10-16T17:48:29.647Z,32.40
2018-10-16T17:50:56.680Z,29.83
2018-10-16T17:53:23.700Z,33.67
2018-10-16T17:55:50.740Z,30.60
2018-10-16T17:58:17.757Z,35.63
2018-10-16T18:00:44.856Z,27.13
2018-10-16T18:03:12.159Z,30.43
2018-10-16T18:05:39.172Z,32.60
2018-10-16T18:08:06.343Z,30.43
2018-10-16T18:10:33.407Z,27.90
2018-10-16T18:13:00.487Z,30.03
2018-10-16T18:15:27.496Z,30.67
2018-10-16T18:17:54.675Z,31.93
2018-10-16T18:20:21.744Z,26.90
2018-10-16T18:22:48.803Z,34.03
2018-10-16T18:25:16.189Z,31.73
2018-10-16T18:27:44.228Z,26.97
2018-10-16T18:30:11.653Z,25.20
2018-10-16T18:32:39.039Z,30.37
2018-10-16T18:35:06.153Z,36.60
2018-10-16T18:37:33.235Z,32.37
2018-10-16T18:40:00.774Z,31.33
2018-10-16T18:42:27.847Z,30.70
2018-10-16T18:44:54.894Z,30.67
2018-10-16T18:47:22.416Z,27.40
2018-10-16T18:49:49.444Z,28.33
2018-10-16T18:52:16.487Z,28.70
2018-10-16T18:54:43.948Z,29.40
2018-10-16T18:57:11.170Z,30.53
2018-10-16T18:59:38.151Z,28.70
2018-10-16T19:02:05.663Z,26.87
2018-10-16T19:04:32.773Z,28.67
2018-10-16T19:06:59.788Z,28.47
2018-10-16T19:09:26.961Z,26.63
2018-10-16T19:11:54.029Z,32.53
2018-10-16T19:14:21.092Z,28.43
2018-10-16T19:16:48.983Z,29.40
2018-10-16T19:19:16.035Z,30.43
2018-10-16T19:21:43.067Z,29.47
2018-10-16T19:24:10.500Z,29.00
2018-10-16T19:26:37.532Z,27.63
2018-10-16T19:29:05.698Z,30.50
2018-10-16T19:31:33.254Z,34.43
2018-10-16T19:34:00.345Z,32.90
2018-10-16T19:36:27.427Z,32.67
2018-10-16T19:38:54.846Z,31.73
2018-10-16T19:41:21.904Z,34.93
2018-10-16T19:43:49.249Z,34.87
2018-10-16T19:46:16.539Z,36.13
2018-10-16T19:48:43.639Z,37.43
2018-10-16T19:51:10.786Z,36.90
2018-10-16T19:53:37.767Z,38.60
2018-10-16T19:56:05.492Z,38.33
2018-10-16T19:58:32.564Z,43.60
2018-10-16T20:01:00.060Z,35.00
2018-10-16T20:03:27.080Z,45.97
2018-10-16T20:05:54.100Z,34.83
2018-10-16T20:08:21.381Z,31.07
2018-10-16T20:10:48.428Z,35.20
2018-10-16T20:13:15.481Z,34.40
2018-10-16T20:15:42.819Z,30.10
2018-10-16T20:18:09.888Z,33.40
2018-10-16T20:20:36.969Z,30.43
2018-10-16T20:23:04.159Z,29.20
2018-10-16T20:25:31.212Z,32.33
2018-10-16T20:27:58.359Z,34.30
2018-10-16T20:30:25.435Z,34.10
2018-10-16T20:32:52.464Z,35.40
2018-10-16T20:35:19.497Z,35.47
2018-10-16T20:37:46.554Z,28.40
2018-10-16T20:40:13.588Z,29.73
2018-10-16T20:42:41.176Z,30.43
2018-10-16T20:45:09.219Z,27.10
2018-10-16T20:47:36.725Z,27.37
2018-10-16T20:50:04.052Z,27.00
2018-10-16T20:52:31.558Z,27.37
2018-10-16T20:54:58.678Z,27.67
2018-10-16T20:57:25.969Z,28.63
2018-10-16T20:59:55.495Z,27.13
2018-10-16T21:02:22.611Z,29.57
2018-10-16T21:04:50.081Z,26.17
2018-10-16T21:07:17.328Z,26.43
2018-10-16T21:09:44.540Z,26.57
2018-10-16T21:12:11.682Z,26.90
2018-10-16T21:14:39.009Z,26.43
2018-10-16T21:17:06.339Z,25.80
2018-10-16T21:19:33.444Z,27.70
2018-10-16T21:22:00.923Z,27.67
2018-10-16T21:24:28.077Z,27.47
2018-10-16T21:26:59.016Z,25.70
2018-10-16T21:29:26.084Z,27.17
2018-10-16T21:31:53.344Z,29.53
2018-10-16T21:34:21.539Z,27.90
2018-10-16T21:36:48.906Z,24.53
2018-10-16T21:39:16.042Z,26.33
2018-10-16T21:41:43.037Z,26.50
2018-10-16T21:44:10.447Z,25.43
2018-10-16T21:46:37.463Z,23.00
2018-10-16T21:49:04.862Z,25.07
2018-10-16T21:51:32.103Z,25.63
2018-10-16T21:53:59.120Z,24.43
2018-10-16T21:56:26.144Z,25.40
2018-10-16T21:58:53.305Z,23.43
2018-10-16T22:01:24.988Z,27.53
2018-10-16T22:03:52.003Z,25.20
2018-10-16T22:06:19.367Z,25.30
2018-10-16T22:08:46.386Z,25.33
2018-10-16T22:11:13.465Z,24.40
2018-10-16T22:13:40.534Z,25.33
2018-10-16T22:16:07.559Z,25.77
2018-10-16T22:18:34.607Z,25.00
2018-10-16T22:21:02.158Z,24.90
2018-10-16T22:23:29.178Z,25.07
2018-10-16T22:25:56.191Z,26.63
2018-10-16T22:28:23.532Z,25.47
2018-10-16T22:30:50.941Z,26.10
2018-10-16T22:33:18.075Z,26.83
2018-10-16T22:35:45.236Z,26.57
2018-10-16T22:38:12.352Z,28.90
2018-10-16T22:40:39.379Z,27.37
2018-10-16T22:43:06.740Z,27.10
2018-10-16T22:45:33.743Z,25.93
2018-10-16T22:48:00.763Z,28.10
2018-10-16T22:50:28.048Z,27.40
2018-10-16T22:52:55.105Z,27.13
2018-10-16T22:55:22.111Z,26.93
2018-10-16T22:57:49.532Z,28.60
2018-10-16T23:00:17.639Z,28.77
2018-10-16T23:02:45.595Z,30.00
2018-10-16T23:05:12.676Z,29.47
2018-10-16T23:07:39.798Z,29.87
2018-10-16T23:10:06.850Z,29.20
2018-10-16T23:12:34.167Z,30.17
2018-10-16T23:15:01.184Z,31.13
2018-10-16T23:17:28.206Z,30.20
2018-10-16T23:19:55.611Z,30.67
2018-10-16T23:22:22.719Z,29.23
2018-10-16T23:24:49.742Z,30.60
2018-10-16T23:27:17.065Z,29.77
2018-10-16T23:29:44.087Z,30.10
2018-10-16T23:32:11.204Z,29.47
2018-10-16T23:34:38.243Z,28.10
2018-10-16T23:37:05.367Z,29.23
2018-10-16T23:39:32.309Z,29.63
2018-10-16T23:41:59.657Z,29.00
2018-10-16T23:44:27.039Z,30.50
2018-10-16T23:46:54.063Z,36.90
2018-10-16T23:49:21.410Z,37.20
2018-10-16T23:51:48.559Z,29.80
2018-10-16T23:54:15.594Z,29.17
2018-10-16T23:56:42.867Z,29.43
2018-10-16T23:59:09.967Z,30.80
